createdAt,value
2017-09-19T00:00:44.834Z,5.4
2017-09-19T00:01:47.227Z,5.5
2017-09-19T00:02:49.613Z,5.4
2017-09-19T00:03:51.997Z,5.4
2017-09-19T00:04:54.386Z,5.5
2017-09-19T00:05:56.785Z,5.4
2017-09-19T00:06:59.169Z,5.4
2017-09-19T00:08:01.566Z,5.4
2017-09-19T00:09:03.950Z,5.5
2017-09-19T00:10:06.339Z,5.4
2017-09-19T00:11:08.728Z,5.5
2017-09-19T00:12:11.115Z,5.4
2017-09-19T00:13:13.862Z,5.4
2017-09-19T00:14:16.257Z,5.4
2017-09-19T00:15:18.651Z,5.4
2017-09-19T00:16:21.041Z,5.4
2017-09-19T00:17:23.430Z,5.4
2017-09-19T00:18:25.818Z,5.4
2017-09-19T00:19:28.201Z,5.4
2017-09-19T00:20:30.598Z,5.4
2017-09-19T00:21:32.985Z,5.4
2017-09-19T00:22:35.708Z,5.4
2017-09-19T00:23:38.103Z,5.4
2017-09-19T00:24:40.500Z,5.4
2017-09-19T00:25:42.894Z,5.4
2017-09-19T00:26:45.296Z,5.4
2017-09-19T00:27:48.010Z,5.4
2017-09-19T00:28:50.404Z,5.4
2017-09-19T00:29:52.800Z,5.3
2017-09-19T00:30:55.524Z,5.5
2017-09-19T00:31:57.913Z,5.3
2017-09-19T00:33:00.300Z,5.4
2017-09-19T00:34:02.685Z,5.4
2017-09-19T00:35:05.075Z,5.4
2017-09-19T00:36:07.456Z,5.3
2017-09-19T00:37:09.848Z,5.3
2017-09-19T00:38:12.235Z,5.3
2017-09-19T00:39:14.615Z,5.3
2017-09-19T00:40:17.007Z,5.4
2017-09-19T00:41:19.390Z,5.4
2017-09-19T00:42:21.783Z,5.3
2017-09-19T00:43:24.174Z,5.3
2017-09-19T00:44:26.563Z,5.4
2017-09-19T00:45:28.958Z,5.3
2017-09-19T00:46:31.350Z,5.3
2017-09-19T00:47:33.732Z,5.4
2017-09-19T00:48:36.116Z,5.3
2017-09-19T00:49:38.505Z,5.3
2017-09-19T00:50:40.885Z,5.4
2017-09-19T00:51:43.280Z,5.4
2017-09-19T00:52:45.672Z,5.4
2017-09-19T00:53:48.388Z,5.4
2017-09-19T00:54:50.785Z,5.3
2017-09-19T00:55:53.510Z,5.3
2017-09-19T00:56:55.890Z,5.4
2017-09-19T00:57:58.284Z,5.3
2017-09-19T00:59:00.675Z,5.3
2017-09-19T01:00:03.058Z,5.3
2017-09-19T01:01:05.462Z,5.3
2017-09-19T01:02:08.188Z,5.4
2017-09-19T01:03:10.575Z,5.4
2017-09-19T01:04:13.302Z,5.3
2017-09-19T01:05:15.692Z,5.3
2017-09-19T01:06:18.079Z,5.4
2017-09-19T01:07:20.464Z,5.4
2017-09-19T01:08:22.852Z,5.3
2017-09-19T01:09:25.245Z,5.4
2017-09-19T01:10:27.626Z,5.4
2017-09-19T01:11:30.023Z,5.3
2017-09-19T01:12:32.401Z,5.4
2017-09-19T01:13:34.794Z,5.3
2017-09-19T01:14:37.190Z,5.3
2017-09-19T01:15:39.571Z,5.3
2017-09-19T01:16:41.957Z,5.3
2017-09-19T01:17:44.349Z,5.4
2017-09-19T01:18:46.732Z,5.3
2017-09-19T01:19:49.126Z,5.3
2017-09-19T01:20:51.519Z,5.3
2017-09-19T01:21:53.906Z,5.3
2017-09-19T01:22:56.293Z,5.3
2017-09-19T01:23:58.688Z,5.3
2017-09-19T01:25:01.069Z,5.3
2017-09-19T01:26:03.461Z,5.3
2017-09-19T01:27:05.838Z,5.3
2017-09-19T01:28:08.572Z,5.3
2017-09-19T01:29:11.296Z,5.3
2017-09-19T01:30:13.685Z,5.3
2017-09-19T01:31:16.071Z,5.3
2017-09-19T01:32:18.466Z,5.3
2017-09-19T01:33:21.187Z,5.3
2017-09-19T01:34:23.582Z,5.3
2017-09-19T01:35:25.966Z,5.4
2017-09-19T01:36:28.381Z,5.3
2017-09-19T01:37:30.735Z,5.3
2017-09-19T01:38:33.126Z,5.3
2017-09-19T01:39:35.521Z,5.3
2017-09-19T01:40:37.917Z,5.3
2017-09-19T01:41:40.299Z,5.3
2017-09-19T01:42:42.693Z,5.3
2017-09-19T01:43:45.090Z,5.3
2017-09-19T01:44:47.472Z,5.3
2017-09-19T01:45:49.861Z,5.3
2017-09-19T01:46:52.580Z,5.3
2017-09-19T01:47:54.970Z,5.3
2017-09-19T01:48:57.353Z,5.3
2017-09-19T01:49:59.772Z,5.3
2017-09-19T01:51:02.467Z,5.3
2017-09-19T01:52:04.858Z,5.3
2017-09-19T01:53:07.252Z,5.3
2017-09-19T01:54:09.648Z,5.3
2017-09-19T01:55:12.038Z,5.3
2017-09-19T01:56:14.432Z,5.4
2017-09-19T01:57:16.825Z,5.4
2017-09-19T01:58:19.213Z,5.3
2017-09-19T01:59:21.601Z,5.3
2017-09-19T02:00:23.988Z,5.3
2017-09-19T02:01:26.369Z,5.3
2017-09-19T02:02:28.766Z,5.3
2017-09-19T02:03:31.153Z,5.4
2017-09-19T02:04:33.535Z,5.3
2017-09-19T02:05:35.927Z,5.3
2017-09-19T02:06:38.306Z,5.3
2017-09-19T02:07:40.689Z,5.3
2017-09-19T02:08:43.081Z,5.3
2017-09-19T02:09:45.472Z,5.3
2017-09-19T02:10:47.869Z,5.3
2017-09-19T02:11:50.257Z,5.3
2017-09-19T02:12:52.641Z,5.3
2017-09-19T02:13:55.029Z,5.3
2017-09-19T02:14:57.764Z,5.3
2017-09-19T02:16:00.143Z,5.3
2017-09-19T02:17:02.533Z,5.3
2017-09-19T02:18:04.921Z,5.3
2017-09-19T02:19:07.302Z,5.3
2017-09-19T02:20:10.052Z,5.3
2017-09-19T02:21:12.435Z,5.3
2017-09-19T02:22:14.826Z,5.4
2017-09-19T02:23:17.216Z,5.3
2017-09-19T02:24:19.598Z,5.3
2017-09-19T02:25:22.325Z,5.3
2017-09-19T02:26:24.717Z,5.3
2017-09-19T02:27:27.103Z,5.3
2017-09-19T02:28:29.486Z,5.3
2017-09-19T02:29:31.879Z,5.3
2017-09-19T02:30:34.262Z,5.3
2017-09-19T02:31:36.658Z,5.3
2017-09-19T02:32:39.047Z,5.3
2017-09-19T02:33:41.436Z,5.3
2017-09-19T02:34:43.820Z,5.3
2017-09-19T02:35:46.212Z,5.3
2017-09-19T02:36:48.605Z,5.2
2017-09-19T02:37:50.998Z,5.3
2017-09-19T02:38:53.383Z,5.3
2017-09-19T02:39:55.777Z,5.3
2017-09-19T02:40:58.159Z,5.3
2017-09-19T02:42:00.905Z,5.3
2017-09-19T02:43:03.294Z,5.3
2017-09-19T02:44:05.677Z,5.3
2017-09-19T02:45:08.070Z,5.2
2017-09-19T02:46:10.460Z,5.3
2017-09-19T02:47:13.190Z,5.3
2017-09-19T02:48:15.577Z,5.3
2017-09-19T02:49:17.976Z,5.3
2017-09-19T02:50:20.697Z,5.3
2017-09-19T02:51:23.423Z,5.4
2017-09-19T02:52:25.824Z,5.4
2017-09-19T02:53:28.205Z,5.3
2017-09-19T02:54:30.596Z,5.3
2017-09-19T02:55:33.336Z,5.3
2017-09-19T02:56:35.720Z,5.3
2017-09-19T02:57:38.113Z,5.3
2017-09-19T02:58:40.499Z,5.3
2017-09-19T02:59:43.224Z,5.3
2017-09-19T03:00:45.619Z,5.3
2017-09-19T03:01:48.008Z,5.3
2017-09-19T03:02:50.737Z,5.3
2017-09-19T03:03:53.121Z,5.3
2017-09-19T03:04:55.517Z,5.3
2017-09-19T03:05:57.913Z,5.3
2017-09-19T03:07:00.295Z,5.4
2017-09-19T03:08:02.686Z,5.3
2017-09-19T03:09:05.076Z,5.3
2017-09-19T03:10:07.460Z,5.3
2017-09-19T03:11:09.854Z,5.3
2017-09-19T03:12:12.238Z,5.3
2017-09-19T03:13:14.957Z,5.3
2017-09-19T03:14:17.697Z,5.3
2017-09-19T03:15:20.420Z,5.3
2017-09-19T03:16:22.804Z,5.3
2017-09-19T03:17:25.196Z,5.3
2017-09-19T03:18:27.578Z,5.3
2017-09-19T03:19:29.964Z,5.3
2017-09-19T03:20:32.357Z,5.3
2017-09-19T03:21:34.744Z,5.3
2017-09-19T03:22:37.126Z,5.2
2017-09-19T03:23:39.522Z,5.3
2017-09-19T03:24:41.898Z,5.2
2017-09-19T03:25:44.295Z,5.3
2017-09-19T03:26:46.687Z,5.2
2017-09-19T03:27:49.073Z,5.3
2017-09-19T03:28:51.465Z,5.3
2017-09-19T03:29:53.860Z,5.3
2017-09-19T03:30:56.585Z,5.3
2017-09-19T03:31:58.981Z,5.3
2017-09-19T03:33:01.704Z,5.3
2017-09-19T03:34:04.097Z,5.3
2017-09-19T03:35:06.483Z,5.3
2017-09-19T03:36:09.209Z,5.3
2017-09-19T03:37:11.590Z,5.3
2017-09-19T03:38:13.976Z,5.2
2017-09-19T03:39:16.361Z,5.2
2017-09-19T03:40:18.754Z,5.3
2017-09-19T03:41:21.139Z,5.3
2017-09-19T03:42:23.528Z,5.3
2017-09-19T03:43:26.261Z,5.2
2017-09-19T03:44:28.992Z,5.2
2017-09-19T03:45:31.720Z,5.2
2017-09-19T03:46:34.112Z,5.2
2017-09-19T03:47:36.497Z,5.2
2017-09-19T03:48:38.888Z,5.3
2017-09-19T03:49:41.281Z,5.2
2017-09-19T03:50:43.667Z,5.3
2017-09-19T03:51:46.046Z,5.3
2017-09-19T03:52:48.432Z,5.2
2017-09-19T03:53:50.815Z,5.2
2017-09-19T03:54:53.541Z,5.2
2017-09-19T03:55:55.949Z,5.3
2017-09-19T03:56:58.326Z,5.2
2017-09-19T03:58:00.717Z,5.2
2017-09-19T03:59:03.114Z,5.2
2017-09-19T04:00:05.498Z,5.2
2017-09-19T04:01:07.886Z,5.2
2017-09-19T04:02:10.280Z,5.2
2017-09-19T04:03:12.675Z,5.2
2017-09-19T04:04:15.049Z,5.3
2017-09-19T04:05:17.446Z,5.3
2017-09-19T04:06:19.830Z,5.3
2017-09-19T04:07:22.218Z,5.2
2017-09-19T04:08:24.618Z,5.2
2017-09-19T04:09:27.006Z,5.2
2017-09-19T04:10:29.390Z,5.2
2017-09-19T04:11:31.793Z,5.3
2017-09-19T04:12:34.180Z,5.3
2017-09-19T04:13:36.568Z,5.2
2017-09-19T04:14:38.961Z,5.3
2017-09-19T04:15:41.347Z,5.2
2017-09-19T04:16:43.731Z,5.3
2017-09-19T04:17:46.457Z,5.3
2017-09-19T04:18:48.840Z,5.3
2017-09-19T04:19:51.225Z,5.3
2017-09-19T04:20:53.618Z,5.3
2017-09-19T04:21:56.004Z,5.2
2017-09-19T04:22:58.390Z,5.2
2017-09-19T04:24:00.786Z,5.2
2017-09-19T04:25:03.171Z,5.3
2017-09-19T04:26:05.564Z,5.3
2017-09-19T04:27:07.954Z,5.3
2017-09-19T04:28:10.342Z,5.3
2017-09-19T04:29:12.720Z,5.3
2017-09-19T04:30:15.113Z,5.3
2017-09-19T04:31:17.492Z,5.2
2017-09-19T04:32:19.880Z,5.3
2017-09-19T04:33:22.264Z,5.2
2017-09-19T04:34:24.656Z,5.2
2017-09-19T04:35:27.380Z,5.2
2017-09-19T04:36:29.768Z,5.2
2017-09-19T04:37:32.506Z,5.3
2017-09-19T04:38:34.889Z,5.2
2017-09-19T04:39:37.280Z,5.2
2017-09-19T04:40:39.670Z,5.2
2017-09-19T04:41:42.055Z,5.2
2017-09-19T04:42:44.440Z,5.2
2017-09-19T04:43:46.836Z,5.2
2017-09-19T04:44:49.213Z,5.2
2017-09-19T04:45:51.606Z,5.2
2017-09-19T04:46:53.985Z,5.2
2017-09-19T04:47:56.376Z,5.2
2017-09-19T04:48:59.106Z,5.2
2017-09-19T04:50:01.500Z,5.2
2017-09-19T04:51:03.882Z,5.2
2017-09-19T04:52:06.279Z,5.2
2017-09-19T04:53:08.667Z,5.2
2017-09-19T04:54:11.059Z,5.2
2017-09-19T04:55:13.447Z,5.2
2017-09-19T04:56:15.829Z,5.2
2017-09-19T04:57:18.211Z,5.2
2017-09-19T04:58:20.603Z,5.2
2017-09-19T04:59:22.990Z,5.2
2017-09-19T05:00:25.374Z,5.2
2017-09-19T05:01:27.765Z,5.2
2017-09-19T05:02:30.153Z,5.2
2017-09-19T05:03:32.539Z,5.2
2017-09-19T05:04:34.932Z,5.2
2017-09-19T05:05:37.659Z,5.2
2017-09-19T05:06:40.051Z,5.2
2017-09-19T05:07:42.434Z,5.2
2017-09-19T05:08:44.854Z,5.2
2017-09-19T05:09:47.214Z,5.2
2017-09-19T05:10:49.607Z,5.2
2017-09-19T05:11:51.992Z,5.2
2017-09-19T05:12:54.375Z,5.2
2017-09-19T05:13:56.758Z,5.2
2017-09-19T05:14:59.154Z,5.2
2017-09-19T05:16:01.538Z,5.2
2017-09-19T05:17:03.921Z,5.2
2017-09-19T05:18:06.315Z,5.2
2017-09-19T05:19:08.697Z,5.2
2017-09-19T05:20:11.095Z,5.2
2017-09-19T05:21:13.488Z,5.2
2017-09-19T05:22:15.877Z,5.2
2017-09-19T05:23:18.264Z,5.2
2017-09-19T05:24:20.995Z,5.2
2017-09-19T05:25:23.374Z,5.2
2017-09-19T05:26:25.765Z,5.2
2017-09-19T05:27:28.153Z,5.3
2017-09-19T05:28:30.549Z,5.2
2017-09-19T05:29:32.939Z,5.2
2017-09-19T05:30:35.324Z,5.2
2017-09-19T05:31:37.707Z,5.2
2017-09-19T05:32:40.096Z,5.3
2017-09-19T05:33:42.488Z,5.2
2017-09-19T05:34:44.879Z,5.2
2017-09-19T05:35:47.263Z,5.2
2017-09-19T05:36:49.660Z,5.2
2017-09-19T05:37:52.036Z,5.2
2017-09-19T05:38:54.430Z,5.2
2017-09-19T05:39:56.813Z,5.3
2017-09-19T05:40:59.552Z,5.2
2017-09-19T05:42:01.943Z,5.3
2017-09-19T05:43:04.335Z,5.2
2017-09-19T05:44:06.722Z,5.3
2017-09-19T05:45:09.124Z,5.2
2017-09-19T05:46:11.506Z,5.2
2017-09-19T05:47:13.889Z,5.2
2017-09-19T05:48:16.278Z,5.2
2017-09-19T05:49:19.005Z,5.2
2017-09-19T05:50:21.391Z,5.2
2017-09-19T05:51:23.783Z,5.2
2017-09-19T05:52:26.170Z,5.3
2017-09-19T05:53:28.562Z,5.3
2017-09-19T05:54:30.947Z,5.3
2017-09-19T05:55:33.364Z,5.3
2017-09-19T05:56:35.718Z,5.2
2017-09-19T05:57:38.119Z,5.3
2017-09-19T05:58:40.503Z,5.3
2017-09-19T05:59:43.235Z,5.3
2017-09-19T06:00:45.619Z,5.3
2017-09-19T06:01:48.011Z,5.3
2017-09-19T06:02:50.725Z,5.3
2017-09-19T06:03:53.118Z,5.3
2017-09-19T06:04:55.853Z,5.3
2017-09-19T06:05:58.242Z,5.3
2017-09-19T06:07:00.626Z,5.3
2017-09-19T06:08:03.010Z,5.3
2017-09-19T06:09:05.399Z,5.3
2017-09-19T06:10:07.797Z,5.3
2017-09-19T06:11:10.188Z,5.3
2017-09-19T06:12:12.572Z,5.3
2017-09-19T06:13:16.000Z,5.3
2017-09-19T06:14:18.750Z,5.3
2017-09-19T06:15:21.131Z,5.4
2017-09-19T06:16:23.515Z,5.4
2017-09-19T06:17:25.906Z,5.4
2017-09-19T06:18:28.301Z,5.4
2017-09-19T06:19:30.692Z,5.4
2017-09-19T06:20:33.084Z,5.4
2017-09-19T06:21:35.469Z,5.4
2017-09-19T06:22:37.858Z,5.4
2017-09-19T06:23:40.248Z,5.4
2017-09-19T06:24:42.649Z,5.4
2017-09-19T06:25:45.391Z,5.4
2017-09-19T06:26:47.770Z,5.4
2017-09-19T06:27:50.163Z,5.4
2017-09-19T06:28:52.552Z,5.4
2017-09-19T06:29:54.947Z,5.4
2017-09-19T06:30:57.681Z,5.4
2017-09-19T06:32:00.067Z,5.5
2017-09-19T06:33:02.461Z,5.5
2017-09-19T06:34:05.196Z,5.4
2017-09-19T06:35:07.925Z,5.5
2017-09-19T06:36:10.323Z,5.5
2017-09-19T06:37:12.707Z,5.5
2017-09-19T06:38:15.447Z,5.5
2017-09-19T06:39:17.837Z,5.5
2017-09-19T06:40:20.230Z,5.5
2017-09-19T06:41:22.621Z,5.5
2017-09-19T06:42:25.001Z,5.6
2017-09-19T06:43:27.392Z,5.5
2017-09-19T06:44:30.114Z,5.6
2017-09-19T06:45:32.508Z,5.5
2017-09-19T06:46:34.899Z,5.5
2017-09-19T06:47:37.296Z,5.5
2017-09-19T06:48:39.684Z,5.5
2017-09-19T06:49:42.084Z,5.6
2017-09-19T06:50:44.469Z,5.5
2017-09-19T06:51:46.856Z,5.6
2017-09-19T06:52:49.253Z,5.7
2017-09-19T06:53:51.638Z,5.6
2017-09-19T06:54:54.031Z,5.6
2017-09-19T06:55:56.419Z,5.6
2017-09-19T06:56:59.144Z,5.6
2017-09-19T06:58:01.534Z,5.6
2017-09-19T06:59:03.926Z,5.6
2017-09-19T07:00:06.327Z,5.5
2017-09-19T07:01:08.715Z,5.5
2017-09-19T07:02:11.098Z,5.5
2017-09-19T07:03:13.491Z,5.6
2017-09-19T07:04:15.875Z,5.6
2017-09-19T07:05:18.271Z,5.5
2017-09-19T07:06:20.662Z,5.6
2017-09-19T07:07:23.046Z,5.5
2017-09-19T07:08:25.437Z,5.6
2017-09-19T07:09:27.828Z,5.6
2017-09-19T07:10:30.212Z,5.6
2017-09-19T07:11:32.612Z,5.6
2017-09-19T07:12:35.002Z,5.6
2017-09-19T07:13:37.388Z,5.7
2017-09-19T07:14:39.787Z,5.6
2017-09-19T07:15:42.185Z,5.5
2017-09-19T07:16:44.568Z,5.6
2017-09-19T07:17:46.968Z,5.6
2017-09-19T07:18:49.360Z,5.6
2017-09-19T07:19:51.749Z,5.7
2017-09-19T07:20:54.135Z,5.6
2017-09-19T07:21:56.519Z,5.6
2017-09-19T07:22:58.907Z,5.6
2017-09-19T07:24:01.315Z,5.6
2017-09-19T07:25:04.030Z,5.6
2017-09-19T07:26:06.428Z,5.7
2017-09-19T07:27:08.823Z,5.6
2017-09-19T07:28:11.218Z,5.6
2017-09-19T07:29:13.954Z,5.6
2017-09-19T07:30:16.336Z,5.6
2017-09-19T07:31:18.727Z,5.7
2017-09-19T07:32:21.114Z,5.7
2017-09-19T07:33:23.516Z,5.6
2017-09-19T07:34:25.914Z,5.7
2017-09-19T07:35:28.296Z,5.7
2017-09-19T07:36:30.693Z,5.7
2017-09-19T07:37:33.093Z,5.7
2017-09-19T07:38:35.480Z,5.7
2017-09-19T07:39:37.885Z,5.7
2017-09-19T07:40:40.276Z,5.7
2017-09-19T07:41:42.664Z,5.7
2017-09-19T07:42:45.068Z,5.6
2017-09-19T07:43:47.798Z,5.8
2017-09-19T07:44:50.527Z,5.8
2017-09-19T07:45:53.256Z,5.8
2017-09-19T07:46:55.641Z,5.8
2017-09-19T07:47:58.040Z,5.8
2017-09-19T07:49:00.425Z,5.8
2017-09-19T07:50:02.808Z,5.8
2017-09-19T07:51:05.549Z,5.8
2017-09-19T07:52:08.284Z,5.9
2017-09-19T07:53:10.685Z,5.8
2017-09-19T07:54:13.084Z,5.8
2017-09-19T07:55:15.472Z,5.9
2017-09-19T07:56:17.865Z,5.9
2017-09-19T07:57:20.260Z,5.9
2017-09-19T07:58:22.648Z,5.9
2017-09-19T07:59:25.039Z,5.9
2017-09-19T08:00:27.441Z,5.9
2017-09-19T08:01:29.834Z,5.9
2017-09-19T08:02:32.223Z,5.9
2017-09-19T08:03:34.620Z,5.9
2017-09-19T08:04:37.012Z,5.9
2017-09-19T08:05:39.403Z,5.9
2017-09-19T08:06:41.802Z,6
2017-09-19T08:07:44.188Z,6
2017-09-19T08:08:46.582Z,6
2017-09-19T08:09:48.979Z,6
2017-09-19T08:10:51.366Z,6
2017-09-19T08:11:53.766Z,6
2017-09-19T08:12:56.164Z,6
2017-09-19T08:13:58.896Z,6
2017-09-19T08:15:01.296Z,6
2017-09-19T08:16:03.686Z,6.1
2017-09-19T08:17:06.078Z,6.1
2017-09-19T08:18:08.478Z,6.1
2017-09-19T08:19:10.872Z,6.1
2017-09-19T08:20:13.261Z,6.1
2017-09-19T08:21:15.663Z,6.2
2017-09-19T08:22:18.059Z,6.2
2017-09-19T08:23:20.456Z,6.2
2017-09-19T08:24:22.856Z,6.2
2017-09-19T08:25:25.258Z,6.2
2017-09-19T08:26:27.656Z,6.2
2017-09-19T08:27:30.505Z,6.3
2017-09-19T08:28:32.967Z,6.2
2017-09-19T08:29:35.710Z,6.3
2017-09-19T08:30:38.101Z,6.3
2017-09-19T08:31:40.506Z,6.3
2017-09-19T08:32:42.901Z,6.3
2017-09-19T08:33:45.297Z,6.3
2017-09-19T08:34:47.692Z,6.4
2017-09-19T08:35:50.092Z,6.4
2017-09-19T08:36:52.487Z,6.4
2017-09-19T08:37:55.229Z,6.4
2017-09-19T08:38:57.628Z,6.4
2017-09-19T08:40:00.029Z,6.4
2017-09-19T08:41:02.436Z,6.5
2017-09-19T08:42:05.187Z,6.5
2017-09-19T08:43:07.586Z,6.5
2017-09-19T08:44:10.699Z,6.5
2017-09-19T08:45:13.430Z,6.6
2017-09-19T08:46:15.832Z,6.6
2017-09-19T08:47:18.232Z,6.6
2017-09-19T08:48:20.626Z,6.5
2017-09-19T08:49:23.023Z,6.6
2017-09-19T08:50:25.432Z,6.7
2017-09-19T08:51:27.829Z,6.6
2017-09-19T08:52:30.567Z,6.6
2017-09-19T08:53:32.967Z,6.6
2017-09-19T08:54:35.367Z,6.6
2017-09-19T08:55:37.766Z,6.6
2017-09-19T08:56:40.848Z,6.7
2017-09-19T08:57:43.250Z,6.6
2017-09-19T08:58:45.643Z,6.7
2017-09-19T08:59:48.046Z,6.7
2017-09-19T09:00:50.452Z,6.7
2017-09-19T09:01:52.856Z,6.8
2017-09-19T09:02:55.254Z,6.7
2017-09-19T09:03:57.660Z,6.8
2017-09-19T09:05:00.058Z,6.8
2017-09-19T09:06:02.808Z,6.7
2017-09-19T09:07:05.203Z,6.9
2017-09-19T09:08:07.940Z,6.8
2017-09-19T09:09:10.682Z,6.8
2017-09-19T09:10:13.424Z,6.8
2017-09-19T09:11:15.828Z,6.7
2017-09-19T09:12:18.233Z,6.8
2017-09-19T09:13:20.626Z,6.8
2017-09-19T09:14:23.033Z,6.8
2017-09-19T09:15:25.773Z,6.9
2017-09-19T09:16:28.191Z,6.8
2017-09-19T09:17:30.580Z,6.7
2017-09-19T09:18:32.984Z,6.7
2017-09-19T09:19:35.722Z,6.7
2017-09-19T09:20:38.126Z,6.8
2017-09-19T09:21:40.521Z,6.7
2017-09-19T09:22:42.917Z,6.8
2017-09-19T09:23:45.308Z,6.7
2017-09-19T09:24:47.719Z,6.7
2017-09-19T09:25:50.115Z,6.8
2017-09-19T09:26:52.504Z,6.8
2017-09-19T09:27:54.912Z,6.9
2017-09-19T09:28:57.317Z,6.8
2017-09-19T09:29:59.712Z,6.8
2017-09-19T09:31:02.116Z,6.9
2017-09-19T09:32:04.512Z,6.8
2017-09-19T09:33:06.908Z,6.9
2017-09-19T09:34:09.316Z,6.9
2017-09-19T09:35:12.051Z,6.9
2017-09-19T09:36:14.449Z,6.9
2017-09-19T09:37:16.866Z,7
2017-09-19T09:38:19.600Z,7
2017-09-19T09:39:22.007Z,7
2017-09-19T09:40:24.415Z,7
2017-09-19T09:41:26.813Z,7
2017-09-19T09:42:29.219Z,7
2017-09-19T09:43:31.626Z,7.1
2017-09-19T09:44:34.024Z,7.1
2017-09-19T09:45:36.427Z,7.1
2017-09-19T09:46:38.835Z,7.1
2017-09-19T09:47:41.231Z,7.1
2017-09-19T09:48:43.633Z,7.1
2017-09-19T09:49:46.042Z,7.2
2017-09-19T09:50:48.444Z,7.1
2017-09-19T09:51:50.852Z,7
2017-09-19T09:52:53.265Z,7
2017-09-19T09:53:55.664Z,7
2017-09-19T09:54:58.075Z,7.1
2017-09-19T09:56:00.507Z,7
2017-09-19T09:57:02.914Z,7
2017-09-19T09:58:05.316Z,7
2017-09-19T09:59:08.061Z,7.1
2017-09-19T10:00:10.465Z,7.1
2017-09-19T10:01:12.870Z,7.1
2017-09-19T10:02:15.264Z,7.1
2017-09-19T10:03:17.681Z,7.1
2017-09-19T10:04:20.079Z,7.1
2017-09-19T10:05:22.482Z,7.1
2017-09-19T10:06:24.890Z,7.1
2017-09-19T10:07:27.292Z,7.1
2017-09-19T10:08:30.035Z,7.1
2017-09-19T10:09:32.452Z,7.1
2017-09-19T10:10:34.844Z,7.1
2017-09-19T10:11:37.263Z,7.1
2017-09-19T10:12:39.657Z,7.1
2017-09-19T10:13:42.414Z,7.2
2017-09-19T10:14:44.826Z,7.2
2017-09-19T10:15:47.231Z,7.2
2017-09-19T10:16:49.633Z,7.3
2017-09-19T10:17:52.044Z,7.1
2017-09-19T10:18:54.450Z,7.1
2017-09-19T10:19:56.866Z,7.1
2017-09-19T10:20:59.278Z,7.2
2017-09-19T10:22:01.675Z,7.1
2017-09-19T10:23:04.086Z,7.1
2017-09-19T10:24:06.497Z,7.2
2017-09-19T10:25:08.899Z,7.2
2017-09-19T10:26:11.299Z,7.2
2017-09-19T10:27:14.044Z,7.2
2017-09-19T10:28:16.446Z,7.2
2017-09-19T10:29:18.851Z,7.2
2017-09-19T10:30:21.258Z,7.2
2017-09-19T10:31:23.666Z,7.2
2017-09-19T10:32:26.075Z,7.2
2017-09-19T10:33:28.487Z,7.2
2017-09-19T10:34:30.892Z,7.2
2017-09-19T10:35:33.305Z,7.2
2017-09-19T10:36:35.712Z,7.2
2017-09-19T10:37:38.121Z,7.1
2017-09-19T10:38:40.867Z,7.2
2017-09-19T10:39:43.269Z,7.2
2017-09-19T10:40:45.679Z,7.2
2017-09-19T10:41:48.417Z,7.2
2017-09-19T10:42:50.823Z,7.2
2017-09-19T10:43:53.235Z,7.1
2017-09-19T10:44:55.631Z,7.2
2017-09-19T10:45:58.047Z,7.1
2017-09-19T10:47:00.785Z,7.1
2017-09-19T10:48:03.186Z,7.1
2017-09-19T10:49:05.593Z,7.1
2017-09-19T10:50:08.341Z,7.1
2017-09-19T10:51:10.748Z,7.2
2017-09-19T10:52:13.151Z,7.1
2017-09-19T10:53:15.548Z,7.1
2017-09-19T10:54:17.951Z,7.1
2017-09-19T10:55:20.368Z,7.1
2017-09-19T10:56:22.770Z,7.1
2017-09-19T10:57:25.178Z,7.1
2017-09-19T10:58:27.589Z,7.1
2017-09-19T10:59:29.993Z,7
2017-09-19T11:00:32.394Z,7.1
2017-09-19T11:01:34.807Z,7.1
2017-09-19T11:02:37.215Z,7.1
2017-09-19T11:03:39.625Z,7.1
2017-09-19T11:04:42.028Z,7.1
2017-09-19T11:05:44.435Z,7.1
2017-09-19T11:06:46.837Z,7.1
2017-09-19T11:07:49.253Z,7.1
2017-09-19T11:08:51.657Z,7.1
2017-09-19T11:09:54.051Z,7.1
2017-09-19T11:10:56.469Z,7
2017-09-19T11:11:58.868Z,7.1
2017-09-19T11:13:01.284Z,7
2017-09-19T11:14:03.684Z,7
2017-09-19T11:15:06.097Z,7
2017-09-19T11:16:08.506Z,7.1
2017-09-19T11:17:11.248Z,7.1
2017-09-19T11:18:13.656Z,7.1
2017-09-19T11:19:16.058Z,7.1
2017-09-19T11:20:18.458Z,7.1
2017-09-19T11:21:20.860Z,7.1
2017-09-19T11:22:23.265Z,7.1
2017-09-19T11:23:25.665Z,7
2017-09-19T11:24:28.070Z,7.1
2017-09-19T11:25:30.479Z,7.1
2017-09-19T11:26:32.875Z,7.1
2017-09-19T11:27:35.285Z,7.1
2017-09-19T11:28:37.688Z,7.1
2017-09-19T11:29:40.100Z,7.1
2017-09-19T11:30:42.502Z,7.1
2017-09-19T11:31:44.922Z,7.2
2017-09-19T11:32:47.680Z,7.1
2017-09-19T11:33:50.459Z,7.1
2017-09-19T11:34:52.859Z,7.1
2017-09-19T11:35:55.260Z,7.2
2017-09-19T11:36:57.664Z,7.2
2017-09-19T11:38:00.076Z,7.2
2017-09-19T11:39:02.473Z,7.2
2017-09-19T11:40:04.880Z,7.2
2017-09-19T11:41:07.625Z,7.1
2017-09-19T11:42:10.026Z,7.2
2017-09-19T11:43:12.443Z,7.2
2017-09-19T11:44:14.856Z,7.2
2017-09-19T11:45:17.952Z,7.2
2017-09-19T11:46:20.365Z,7.2
2017-09-19T11:47:22.784Z,7.2
2017-09-19T11:48:25.523Z,7.3
2017-09-19T11:49:27.939Z,7.2
2017-09-19T11:50:30.344Z,7.2
2017-09-19T11:51:32.754Z,7.2
2017-09-19T11:52:35.173Z,7.2
2017-09-19T11:53:37.919Z,7.2
2017-09-19T11:54:40.322Z,7.2
2017-09-19T11:55:42.729Z,7.3
2017-09-19T11:56:45.483Z,7.3
2017-09-19T11:57:47.882Z,7.3
2017-09-19T11:58:50.292Z,7.3
2017-09-19T11:59:52.703Z,7.2
2017-09-19T12:00:55.107Z,7.2
2017-09-19T12:01:57.514Z,7.3
2017-09-19T12:02:59.920Z,7.4
2017-09-19T12:04:03.012Z,7.2
2017-09-19T12:05:05.419Z,7.3
2017-09-19T12:06:07.824Z,7.3
2017-09-19T12:07:10.229Z,7.3
2017-09-19T12:08:12.977Z,7.2
2017-09-19T12:09:15.388Z,7.2
2017-09-19T12:10:17.796Z,7.3
2017-09-19T12:11:20.212Z,7.2
2017-09-19T12:12:22.617Z,7.2
2017-09-19T12:13:25.030Z,7.2
2017-09-19T12:14:27.436Z,7.3
2017-09-19T12:15:29.841Z,7.2
2017-09-19T12:16:32.245Z,7.2
2017-09-19T12:17:34.654Z,7.2
2017-09-19T12:18:37.053Z,7.3
2017-09-19T12:19:39.462Z,7.2
2017-09-19T12:20:41.863Z,7.1
2017-09-19T12:21:44.276Z,7.1
2017-09-19T12:22:46.683Z,7.2
2017-09-19T12:23:49.085Z,7.2
2017-09-19T12:24:51.832Z,7.2
2017-09-19T12:25:54.239Z,7.2
2017-09-19T12:26:56.647Z,7.2
2017-09-19T12:27:59.053Z,7.2
2017-09-19T12:29:01.463Z,7.2
2017-09-19T12:30:03.878Z,7.1
2017-09-19T12:31:06.293Z,7.1
2017-09-19T12:32:08.692Z,7.1
2017-09-19T12:33:11.096Z,7.2
2017-09-19T12:34:13.497Z,7.1
2017-09-19T12:35:15.908Z,7.1
2017-09-19T12:36:18.315Z,7.1
2017-09-19T12:37:20.729Z,7.2
2017-09-19T12:38:23.134Z,7.1
2017-09-19T12:39:25.549Z,7.1
2017-09-19T12:40:27.952Z,7.1
2017-09-19T12:41:30.699Z,7.1
2017-09-19T12:42:33.110Z,7.1
2017-09-19T12:43:35.872Z,7.1
2017-09-19T12:44:38.622Z,7.1
2017-09-19T12:45:41.030Z,7.1
2017-09-19T12:46:43.435Z,7.1
2017-09-19T12:47:45.840Z,7.1
2017-09-19T12:48:48.259Z,7.1
2017-09-19T12:49:50.998Z,7.1
2017-09-19T12:50:53.410Z,7.1
2017-09-19T12:51:55.824Z,7.1
2017-09-19T12:52:58.228Z,7.2
2017-09-19T12:54:00.634Z,7.1
2017-09-19T12:55:03.386Z,7.1
2017-09-19T12:56:05.790Z,7.2
2017-09-19T12:57:08.193Z,7.1
2017-09-19T12:58:10.594Z,7.1
2017-09-19T12:59:13.007Z,7
2017-09-19T13:00:41.088Z,7.1
2017-09-19T13:01:43.492Z,7
2017-09-19T13:02:45.896Z,7
2017-09-19T13:03:48.305Z,7
2017-09-19T13:04:50.699Z,7
2017-09-19T13:05:53.106Z,7
2017-09-19T13:06:55.512Z,7
2017-09-19T13:07:57.911Z,7
2017-09-19T13:09:00.316Z,7
2017-09-19T13:10:03.071Z,7
2017-09-19T13:11:05.470Z,7
2017-09-19T13:12:07.884Z,7
2017-09-19T13:13:10.290Z,7
2017-09-19T13:14:12.693Z,7
2017-09-19T13:15:15.106Z,7
2017-09-19T13:16:17.520Z,7
2017-09-19T13:17:19.917Z,7
2017-09-19T13:18:22.329Z,7
2017-09-19T13:19:24.735Z,7.1
2017-09-19T13:20:27.478Z,7
2017-09-19T13:21:29.885Z,7.1
2017-09-19T13:22:32.296Z,7
2017-09-19T13:23:34.697Z,7
2017-09-19T13:24:37.107Z,7.1
2017-09-19T13:25:39.523Z,7
2017-09-19T13:26:41.927Z,7
2017-09-19T13:27:44.340Z,7.1
2017-09-19T13:28:47.446Z,7
2017-09-19T13:29:50.521Z,7
2017-09-19T13:30:52.919Z,7
2017-09-19T13:31:55.328Z,7
2017-09-19T13:32:58.087Z,7
2017-09-19T13:34:00.497Z,7
2017-09-19T13:35:02.907Z,7
2017-09-19T13:36:05.309Z,7
2017-09-19T13:37:08.064Z,7
2017-09-19T13:38:10.812Z,7
2017-09-19T13:39:13.213Z,7
2017-09-19T13:40:15.626Z,7
2017-09-19T13:41:18.028Z,7
2017-09-19T13:42:20.435Z,7
2017-09-19T13:43:22.852Z,7
2017-09-19T13:44:25.258Z,7
2017-09-19T13:45:27.668Z,7
2017-09-19T13:46:30.081Z,7
2017-09-19T13:47:32.471Z,7
2017-09-19T13:48:34.882Z,7
2017-09-19T13:49:37.291Z,7
2017-09-19T13:50:39.695Z,7.1
2017-09-19T13:51:42.103Z,7.1
2017-09-19T13:52:44.511Z,7.1
2017-09-19T13:54:51.188Z,7
2017-09-19T13:55:53.639Z,7
2017-09-19T13:56:56.287Z,7
2017-09-19T13:57:59.097Z,7
2017-09-19T13:59:01.554Z,7
2017-09-19T14:00:04.365Z,7
2017-09-19T14:01:06.817Z,7
2017-09-19T14:02:54.432Z,7
2017-09-19T14:03:56.937Z,7
2017-09-19T14:04:59.377Z,7
2017-09-19T14:06:01.837Z,7
2017-09-19T14:07:04.652Z,7
2017-09-19T14:08:07.112Z,7
2017-09-19T14:09:09.912Z,7
2017-09-19T14:10:12.722Z,7
2017-09-19T14:11:15.177Z,7
2017-09-19T14:12:17.635Z,7
2017-09-19T14:13:20.442Z,7
2017-09-19T14:14:22.896Z,7
2017-09-19T14:15:25.412Z,7
2017-09-19T14:16:27.875Z,7
2017-09-19T14:17:30.326Z,7
2017-09-19T14:18:33.141Z,7
2017-09-19T14:19:35.606Z,7
2017-09-19T14:20:38.062Z,6.9
2017-09-19T14:21:40.527Z,6.9
2017-09-19T14:22:42.991Z,7
2017-09-19T14:23:45.476Z,7
2017-09-19T14:25:26.326Z,7
2017-09-19T14:27:13.637Z,6.9
2017-09-19T14:28:16.089Z,7
2017-09-19T14:29:18.554Z,7
2017-09-19T14:30:21.012Z,7
2017-09-19T14:31:23.476Z,7